KCMX/CMX METAR and TAF weather

Enter ICAO airport designator
Station Type Date Time Source
KCMX METAR 2018/10/21 05:53 UTC NOAA

KCMX 210553Z AUTO 31008KT 10SM OVC030 01/M06 A3022 RMK AO2 SLP246 T00061061 10011 20006 53006


Station Type Date Time Source
KCMX Decoded METAR 2018/10/21 05:53 UTC NOAA

HANCOCK HOUGHTON CTY. MEMO, MI, United States (KCMX) 47-10N 088-29W 326M
Oct 21, 2018 - 01:53 AM EDT / 2018.10.21 0553 UTC
Wind: from the NW (310 degrees) at 9 MPH (8 KT):0
Visibility: 10 mile(s):0
Sky conditions: overcast
Temperature: 33.1 F (0.6 C)
Windchill: 24 F (-4 C):1
Dew Point: 21.0 F (-6.1 C)
Relative Humidity: 60%
Pressure (altimeter): 30.22 in. Hg (1023 hPa)
Pressure tendency: 0.02 inches (0.6 hPa) higher than three hours ago
ob: KCMX 210553Z AUTO 31008KT 10SM OVC030 01/M06 A3022 RMK AO2 SLP246 T00061061 10011 20006 53006
cycle: 6

Station Type Date Time Source
KCMX TAF 2018/10/21 06:22 UTC NOAA

TAF KCMX 210520Z 2106/2206 32008KT P6SM BKN035
FM210800 29006KT P6SM BKN040
FM211100 25006KT P6SM BKN050
FM212000 22008KT P6SM SCT140
FM220000 25008KT P6SM FEW250


Example: see airport list